Roaring Springs, Texas
Current Conditions -  °F | °C
As of 3:53 PM on Thursday 18 Dec 2014 (Local Time) from KCDS Reporting Station
Overcast Overcast  
Wind Chill: 41°   Ceiling: 1900
Heat Index: 45°   Visibility: 10mi
Dew Point: 36°   Wind: 7mph
Humidity: 71%   Direction: 10°N
Pressure: 30.12"   Gusts: NA
Location:  33.9°N, 100.86°W
Report Text: KCDS 182153Z AUTO 01006KT 10SM OVC019 07/02 A3012 RMK AO2 SLP201 T00720022
Loading
Personal Weather Stations






























Interactive Weather Map New forecast layout! Learn more

10-Day Weather Forecast

Advertisements
Track Severe Weather on mobile